createdAt,value
2023-03-16T00:00:51.019Z,71.13
2023-03-16T00:01:54.715Z,70.89
2023-03-16T00:02:56.531Z,70.93
2023-03-16T00:03:58.009Z,71.23
2023-03-16T00:04:59.880Z,71.42
2023-03-16T00:06:01.534Z,71.50
2023-03-16T00:07:04.579Z,71.32
2023-03-16T00:08:06.124Z,71.39
2023-03-16T00:09:09.063Z,71.48
2023-03-16T00:10:12.549Z,71.37
2023-03-16T00:11:14.132Z,71.80
2023-03-16T00:12:18.224Z,71.95
2023-03-16T00:13:25.568Z,71.73
2023-03-16T00:14:27.434Z,72.15
2023-03-16T00:15:29.606Z,72.25
2023-03-16T00:16:31.442Z,72.05
2023-03-16T00:17:34.038Z,72.17
2023-03-16T00:18:38.485Z,72.46
2023-03-16T00:19:46.030Z,72.33
2023-03-16T00:20:56.237Z,72.68
2023-03-16T00:21:57.815Z,72.61
2023-03-16T00:23:00.206Z,72.45
2023-03-16T00:24:03.545Z,72.42
2023-03-16T00:25:05.838Z,72.50
2023-03-16T00:26:09.447Z,72.57
2023-03-16T00:27:15.398Z,72.79
2023-03-16T00:28:17.179Z,72.84
2023-03-16T00:29:18.714Z,72.96
2023-03-16T00:30:20.249Z,73.07
2023-03-16T00:31:24.400Z,72.60
2023-03-16T00:32:28.910Z,72.97
2023-03-16T00:33:34.143Z,72.77
2023-03-16T00:34:35.618Z,72.91
2023-03-16T00:35:38.825Z,73.19
2023-03-16T00:36:42.097Z,73.19
2023-03-16T00:37:43.969Z,73.05
2023-03-16T00:38:46.374Z,73.21
2023-03-16T00:39:49.039Z,73.04
2023-03-16T00:40:50.753Z,73.39
2023-03-16T00:41:52.287Z,73.17
2023-03-16T00:42:54.480Z,73.22
2023-03-16T00:43:55.922Z,73.38
2023-03-16T00:44:58.739Z,73.44
2023-03-16T00:46:06.049Z,73.36
2023-03-16T00:47:08.398Z,73.44
2023-03-16T00:48:10.892Z,73.20
2023-03-16T00:49:12.642Z,73.44
2023-03-16T00:50:15.108Z,73.29
2023-03-16T00:51:18.958Z,73.50
2023-03-16T00:52:21.600Z,73.40
2023-03-16T00:53:23.082Z,73.59
2023-03-16T00:54:26.388Z,73.52
2023-03-16T00:55:28.008Z,73.46
2023-03-16T00:56:29.567Z,73.48
2023-03-16T00:57:31.275Z,73.86
2023-03-16T00:58:35.155Z,73.74
2023-03-16T00:59:37.299Z,73.77
2023-03-16T01:00:40.427Z,74.14
2023-03-16T01:01:42.297Z,73.99
2023-03-16T01:02:44.877Z,74.43
2023-03-16T01:03:46.845Z,74.19
2023-03-16T01:04:48.918Z,74.34
2023-03-16T01:05:50.435Z,74.32
2023-03-16T01:06:52.024Z,74.45
2023-03-16T01:07:53.474Z,74.60
2023-03-16T01:08:55.028Z,74.47
2023-03-16T01:09:57.329Z,75.02
2023-03-16T01:11:10.172Z,74.81
2023-03-16T01:12:14.635Z,74.76
2023-03-16T01:13:16.287Z,74.84
2023-03-16T01:14:17.802Z,74.85
2023-03-16T01:15:19.329Z,74.99
2023-03-16T01:16:22.768Z,74.83
2023-03-16T01:17:24.281Z,75.20
2023-03-16T01:18:27.081Z,75.20
2023-03-16T01:19:29.476Z,75.22
2023-03-16T01:20:32.849Z,75.30
2023-03-16T01:21:36.325Z,74.95
2023-03-16T01:22:38.188Z,75.13
2023-03-16T01:23:40.406Z,75.19
2023-03-16T01:24:44.631Z,75.32
2023-03-16T01:25:53.595Z,75.45
2023-03-16T01:26:55.742Z,75.83
2023-03-16T01:27:57.713Z,76.07
2023-03-16T01:28:59.321Z,76.01
2023-03-16T01:30:01.589Z,76.30
2023-03-16T01:31:25.657Z,76.00
2023-03-16T01:32:27.682Z,76.51
2023-03-16T01:33:30.090Z,76.29
2023-03-16T01:34:33.214Z,76.32
2023-03-16T01:35:34.730Z,76.44
2023-03-16T01:36:36.418Z,76.40
2023-03-16T01:37:40.795Z,76.68
2023-03-16T01:39:01.346Z,76.65
2023-03-16T01:40:10.627Z,76.75
2023-03-16T01:41:13.838Z,76.58
2023-03-16T01:42:15.374Z,76.58
2023-03-16T01:43:22.422Z,77.19
2023-03-16T01:44:34.514Z,76.84
2023-03-16T01:46:13.778Z,76.75
2023-03-16T01:47:18.263Z,76.81
2023-03-16T01:48:24.930Z,77.01
2023-03-16T01:49:32.107Z,77.02
2023-03-16T01:50:34.815Z,76.99
2023-03-16T01:51:43.930Z,76.83
2023-03-16T01:52:45.598Z,76.84
2023-03-16T01:53:52.488Z,76.96
2023-03-16T01:54:59.945Z,76.77
2023-03-16T01:56:07.757Z,76.94
2023-03-16T01:57:12.200Z,76.99
2023-03-16T01:58:16.668Z,77.09
2023-03-16T01:59:24.355Z,76.98
2023-03-16T02:00:31.127Z,77.09
2023-03-16T02:01:36.498Z,76.98
2023-03-16T02:02:42.884Z,77.12
2023-03-16T02:03:45.384Z,77.44
2023-03-16T02:05:12.281Z,77.16
2023-03-16T02:06:19.724Z,77.48
2023-03-16T02:07:29.877Z,77.69
2023-03-16T02:08:32.710Z,77.45
2023-03-16T02:09:38.463Z,77.42
2023-03-16T02:10:40.578Z,77.65
2023-03-16T02:11:42.216Z,77.43
2023-03-16T02:12:47.011Z,77.55
2023-03-16T02:13:49.686Z,77.34
2023-03-16T02:14:51.716Z,77.54
2023-03-16T02:15:54.070Z,77.50
2023-03-16T02:16:56.199Z,77.37
2023-03-16T02:17:59.591Z,77.35
2023-03-16T02:19:01.381Z,77.44
2023-03-16T02:20:15.704Z,77.47
2023-03-16T02:21:42.348Z,77.63
2023-03-16T02:22:47.910Z,77.63
2023-03-16T02:23:50.960Z,77.74
2023-03-16T02:24:53.351Z,77.75
2023-03-16T02:26:14.396Z,77.58
2023-03-16T02:27:52.260Z,78.07
2023-03-16T02:29:11.331Z,77.71
2023-03-16T02:30:17.255Z,78.00
2023-03-16T02:31:31.758Z,78.07
2023-03-16T02:32:35.781Z,78.21
2023-03-16T02:33:38.568Z,77.99
2023-03-16T02:34:42.685Z,77.82
2023-03-16T02:35:44.448Z,77.86
2023-03-16T02:36:49.087Z,77.95
2023-03-16T02:37:52.019Z,77.85
2023-03-16T02:38:53.767Z,77.72
2023-03-16T02:39:55.474Z,77.88
2023-03-16T02:41:00.774Z,77.84
2023-03-16T02:42:03.174Z,77.92
2023-03-16T02:43:10.081Z,77.99
2023-03-16T02:44:23.718Z,78.14
2023-03-16T02:45:28.426Z,78.02
2023-03-16T02:46:35.081Z,78.00
2023-03-16T02:47:41.143Z,77.94
2023-03-16T02:48:49.084Z,77.99
2023-03-16T02:49:50.847Z,78.10
2023-03-16T02:50:54.182Z,78.08
2023-03-16T02:51:56.869Z,78.05
2023-03-16T02:52:58.699Z,78.05
2023-03-16T02:54:00.576Z,78.01
2023-03-16T02:55:05.317Z,78.07
2023-03-16T02:56:07.768Z,78.07
2023-03-16T02:57:10.689Z,78.10
2023-03-16T02:58:13.154Z,78.25
2023-03-16T02:59:14.785Z,78.20
2023-03-16T03:00:18.544Z,78.44
2023-03-16T03:01:21.774Z,78.21
2023-03-16T03:02:23.526Z,78.33
2023-03-16T03:03:25.072Z,78.26
2023-03-16T03:04:26.736Z,78.36
2023-03-16T03:05:28.306Z,78.45
2023-03-16T03:06:31.707Z,78.40
2023-03-16T03:07:33.666Z,78.28
2023-03-16T03:08:38.345Z,78.46
2023-03-16T03:09:43.640Z,78.54
2023-03-16T03:10:45.636Z,78.54
2023-03-16T03:11:47.167Z,78.63
2023-03-16T03:12:48.842Z,78.47
2023-03-16T03:13:51.069Z,78.59
2023-03-16T03:14:56.633Z,78.55
2023-03-16T03:15:59.576Z,78.62
2023-03-16T03:17:01.730Z,78.68
2023-03-16T03:18:03.857Z,78.45
2023-03-16T03:19:05.619Z,78.56
2023-03-16T03:20:15.631Z,78.63
2023-03-16T03:21:17.246Z,78.68
2023-03-16T03:22:18.726Z,78.66
2023-03-16T03:23:20.522Z,78.66
2023-03-16T03:24:22.967Z,78.77
2023-03-16T03:25:24.454Z,78.92
2023-03-16T03:26:27.396Z,79.35
2023-03-16T03:27:29.544Z,79.29
2023-03-16T03:28:33.602Z,78.98
2023-03-16T03:29:35.459Z,78.99
2023-03-16T03:30:36.888Z,79.07
2023-03-16T03:31:38.862Z,79.10
2023-03-16T03:32:41.760Z,79.22
2023-03-16T03:33:44.356Z,79.18
2023-03-16T03:34:46.090Z,79.45
2023-03-16T03:35:55.918Z,79.34
2023-03-16T03:36:58.508Z,79.57
2023-03-16T03:38:00.405Z,79.20
2023-03-16T03:39:04.379Z,79.45
2023-03-16T03:40:07.990Z,79.37
2023-03-16T03:41:09.561Z,79.38
2023-03-16T03:42:12.835Z,79.57
2023-03-16T03:43:14.489Z,79.49
2023-03-16T03:44:16.660Z,79.58
2023-03-16T03:45:18.227Z,79.56
2023-03-16T03:46:20.097Z,79.89
2023-03-16T03:47:22.169Z,79.85
2023-03-16T03:48:24.806Z,79.81
2023-03-16T03:49:26.623Z,79.81
2023-03-16T03:50:28.276Z,80.00
2023-03-16T03:51:50.663Z,79.88
2023-03-16T03:52:58.459Z,79.96
2023-03-16T03:54:00.421Z,80.30
2023-03-16T03:55:14.957Z,80.41
2023-03-16T03:56:16.684Z,80.32
2023-03-16T03:57:19.843Z,80.29
2023-03-16T03:58:22.694Z,80.44
2023-03-16T03:59:24.246Z,80.15
2023-03-16T04:00:43.129Z,80.36
2023-03-16T04:01:44.626Z,80.39
2023-03-16T04:02:46.838Z,80.31
2023-03-16T04:03:59.962Z,80.13
2023-03-16T04:05:01.403Z,80.20
2023-03-16T04:06:03.380Z,80.54
2023-03-16T04:07:06.134Z,80.39
2023-03-16T04:08:07.670Z,80.26
2023-03-16T04:09:09.635Z,80.37
2023-03-16T04:10:11.147Z,80.30
2023-03-16T04:11:14.864Z,80.57
2023-03-16T04:12:16.508Z,80.53
2023-03-16T04:13:18.315Z,80.54
2023-03-16T04:14:20.025Z,80.74
2023-03-16T04:15:21.652Z,80.49
2023-03-16T04:16:34.544Z,80.67
2023-03-16T04:17:36.148Z,80.79
2023-03-16T04:18:40.205Z,80.58
2023-03-16T04:19:42.772Z,80.56
2023-03-16T04:20:47.753Z,80.68
2023-03-16T04:21:52.777Z,80.81
2023-03-16T04:22:57.833Z,80.71
2023-03-16T04:23:59.363Z,80.74
2023-03-16T04:25:06.692Z,80.62
2023-03-16T04:26:11.511Z,80.62
2023-03-16T04:27:13.147Z,80.77
2023-03-16T04:28:17.112Z,80.93
2023-03-16T04:29:19.773Z,80.84
2023-03-16T04:30:22.904Z,80.56
2023-03-16T04:31:26.644Z,80.74
2023-03-16T04:32:28.098Z,80.71
2023-03-16T04:33:31.597Z,80.73
2023-03-16T04:34:33.754Z,80.62
2023-03-16T04:35:37.397Z,80.57
2023-03-16T04:36:39.167Z,80.71
2023-03-16T04:37:40.798Z,80.82
2023-03-16T04:38:43.231Z,80.76
2023-03-16T04:39:44.931Z,80.86
2023-03-16T04:40:46.511Z,80.82
2023-03-16T04:41:51.280Z,80.82
2023-03-16T04:42:56.506Z,81.19
2023-03-16T04:43:58.257Z,81.12
2023-03-16T04:44:59.933Z,81.02
2023-03-16T04:46:03.775Z,81.06
2023-03-16T04:47:05.667Z,80.93
2023-03-16T04:48:11.532Z,80.81
2023-03-16T04:49:13.522Z,80.96
2023-03-16T04:50:18.034Z,80.89
2023-03-16T04:51:25.824Z,80.97
2023-03-16T04:52:38.254Z,81.05
2023-03-16T04:53:40.200Z,80.95
2023-03-16T04:54:48.378Z,81.09
2023-03-16T04:55:50.635Z,81.19
2023-03-16T04:56:52.806Z,81.37
2023-03-16T04:58:14.715Z,81.08
2023-03-16T04:59:16.181Z,81.26
2023-03-16T05:00:25.874Z,81.31
2023-03-16T05:01:44.340Z,81.43
2023-03-16T05:02:47.985Z,81.27
2023-03-16T05:03:49.669Z,81.23
2023-03-16T05:04:51.336Z,81.55
2023-03-16T05:05:52.849Z,81.37
2023-03-16T05:06:54.318Z,81.58
2023-03-16T05:07:59.006Z,81.56
2023-03-16T05:09:04.403Z,81.48
2023-03-16T05:10:12.897Z,81.77
2023-03-16T05:11:15.168Z,81.59
2023-03-16T05:12:24.059Z,81.57
2023-03-16T05:13:29.142Z,81.63
2023-03-16T05:14:35.398Z,81.68
2023-03-16T05:15:53.193Z,81.59
2023-03-16T05:16:59.027Z,81.64
2023-03-16T05:18:01.040Z,81.67
2023-03-16T05:19:02.892Z,81.93
2023-03-16T05:20:08.516Z,81.71
2023-03-16T05:21:12.113Z,81.73
2023-03-16T05:22:22.941Z,81.78
2023-03-16T05:23:39.653Z,81.67
2023-03-16T05:24:41.312Z,81.92
2023-03-16T05:25:42.839Z,81.88
2023-03-16T05:26:44.823Z,81.89
2023-03-16T05:27:53.762Z,81.89
2023-03-16T05:29:01.900Z,81.87
2023-03-16T05:30:06.010Z,81.79
2023-03-16T05:31:10.328Z,81.83
2023-03-16T05:32:16.420Z,82.00
2023-03-16T05:33:18.798Z,82.00
2023-03-16T05:34:22.825Z,81.88
2023-03-16T05:35:25.561Z,81.84
2023-03-16T05:36:28.243Z,82.09
2023-03-16T05:37:37.492Z,82.11
2023-03-16T05:38:42.147Z,81.81
2023-03-16T05:39:45.326Z,82.14
2023-03-16T05:40:52.684Z,82.07
2023-03-16T05:42:12.990Z,82.19
2023-03-16T05:43:21.590Z,82.39
2023-03-16T05:44:24.882Z,82.65
2023-03-16T05:45:34.747Z,82.28
2023-03-16T05:46:45.144Z,82.43
2023-03-16T05:47:46.960Z,82.51
2023-03-16T05:48:48.598Z,82.37
2023-03-16T05:49:50.296Z,82.53
2023-03-16T05:51:05.563Z,82.54
2023-03-16T05:52:07.305Z,82.31
2023-03-16T05:53:09.672Z,82.67
2023-03-16T05:54:11.773Z,82.47
2023-03-16T05:55:18.654Z,82.39
2023-03-16T05:56:25.369Z,82.29
2023-03-16T05:57:27.572Z,82.48
2023-03-16T05:58:29.677Z,82.24
2023-03-16T05:59:31.986Z,82.25
2023-03-16T06:00:33.618Z,82.38
2023-03-16T06:01:43.941Z,82.49
2023-03-16T06:02:48.127Z,82.46
2023-03-16T06:03:51.232Z,82.32
2023-03-16T06:04:56.042Z,82.27
2023-03-16T06:05:57.899Z,82.18
2023-03-16T06:07:04.890Z,82.45
2023-03-16T06:08:07.232Z,82.25
2023-03-16T06:09:09.112Z,82.32
2023-03-16T06:10:12.769Z,82.24
2023-03-16T06:11:14.639Z,82.18
2023-03-16T06:12:16.540Z,82.28
2023-03-16T06:13:19.059Z,82.39
2023-03-16T06:14:20.761Z,82.33
2023-03-16T06:15:25.975Z,82.15
2023-03-16T06:16:28.600Z,82.19
2023-03-16T06:17:30.191Z,82.14
2023-03-16T06:18:33.700Z,82.18
2023-03-16T06:19:35.446Z,82.31
2023-03-16T06:20:37.232Z,82.18
2023-03-16T06:21:38.853Z,82.07
2023-03-16T06:22:44.465Z,82.20
2023-03-16T06:23:46.386Z,81.95
2023-03-16T06:24:48.802Z,82.16
2023-03-16T06:25:53.989Z,82.16
2023-03-16T06:26:55.909Z,82.11
2023-03-16T06:28:00.464Z,82.04
2023-03-16T06:29:02.206Z,82.21
2023-03-16T06:30:06.470Z,82.16
2023-03-16T06:31:08.345Z,82.22
2023-03-16T06:32:10.650Z,82.29
2023-03-16T06:33:12.357Z,82.09
2023-03-16T06:34:14.106Z,82.36
2023-03-16T06:35:15.806Z,82.33
2023-03-16T06:36:22.258Z,82.20
2023-03-16T06:37:28.025Z,82.22
2023-03-16T06:38:29.537Z,82.43
2023-03-16T06:39:45.590Z,82.58
2023-03-16T06:40:52.293Z,82.43
2023-03-16T06:41:54.875Z,82.31
2023-03-16T06:42:57.174Z,82.17
2023-03-16T06:43:58.751Z,82.17
2023-03-16T06:45:00.327Z,82.17
2023-03-16T06:46:02.854Z,82.40
2023-03-16T06:47:05.139Z,82.21
2023-03-16T06:48:09.095Z,82.06
2023-03-16T06:49:10.692Z,82.04
2023-03-16T06:50:12.169Z,82.13
2023-03-16T06:51:16.317Z,82.21
2023-03-16T06:52:19.236Z,82.00
2023-03-16T06:53:21.438Z,81.95
2023-03-16T06:54:23.010Z,81.98
2023-03-16T06:55:24.462Z,81.95
2023-03-16T06:56:27.237Z,81.91
2023-03-16T06:57:28.765Z,81.86
2023-03-16T06:58:30.507Z,81.97
2023-03-16T06:59:31.974Z,81.86
2023-03-16T07:00:33.607Z,81.83
2023-03-16T07:01:35.082Z,81.72
2023-03-16T07:02:39.501Z,81.63
2023-03-16T07:04:01.148Z,81.79
2023-03-16T07:05:07.700Z,81.64
2023-03-16T07:06:11.436Z,81.64
2023-03-16T07:07:13.845Z,81.69
2023-03-16T07:08:17.681Z,81.54
2023-03-16T07:09:21.224Z,81.53
2023-03-16T07:10:24.920Z,81.55
2023-03-16T07:11:27.076Z,81.36
2023-03-16T07:12:28.795Z,81.42
2023-03-16T07:13:30.918Z,81.05
2023-03-16T07:14:34.241Z,81.29
2023-03-16T07:15:37.159Z,81.28
2023-03-16T07:16:40.620Z,81.39
2023-03-16T07:17:44.015Z,80.98
2023-03-16T07:18:46.792Z,80.92
2023-03-16T07:19:50.130Z,80.98
2023-03-16T07:20:53.678Z,80.46
2023-03-16T07:21:57.196Z,80.44
2023-03-16T07:23:00.173Z,80.13
2023-03-16T07:24:02.207Z,79.81
2023-03-16T07:25:05.871Z,79.99
2023-03-16T07:26:14.041Z,79.30
2023-03-16T07:27:24.962Z,79.30
2023-03-16T07:28:27.406Z,79.28
2023-03-16T07:29:29.871Z,78.60
2023-03-16T07:30:35.229Z,78.49
2023-03-16T07:31:38.959Z,78.73
2023-03-16T07:32:47.325Z,78.71
2023-03-16T07:33:50.273Z,78.56
2023-03-16T07:34:59.509Z,77.83
2023-03-16T07:36:03.806Z,78.01
2023-03-16T07:37:08.570Z,77.58
2023-03-16T07:38:11.666Z,77.41
2023-03-16T07:39:17.088Z,77.66
2023-03-16T07:40:19.511Z,77.15
2023-03-16T07:41:24.921Z,76.66
2023-03-16T07:42:27.017Z,76.85
2023-03-16T07:43:35.535Z,76.75
2023-03-16T07:44:37.371Z,76.67
2023-03-16T07:45:39.639Z,76.81
2023-03-16T07:46:44.543Z,76.67
2023-03-16T07:47:47.350Z,76.52
2023-03-16T07:49:09.033Z,76.55
2023-03-16T07:50:14.971Z,76.55
2023-03-16T07:51:20.689Z,76.74
2023-03-16T07:52:24.774Z,75.80
2023-03-16T07:53:27.041Z,76.09
2023-03-16T07:54:42.741Z,76.25
2023-03-16T07:55:46.940Z,76.47
2023-03-16T07:56:49.938Z,76.26
2023-03-16T07:58:13.698Z,75.91
2023-03-16T07:59:20.795Z,76.17
2023-03-16T08:00:24.102Z,76.00
2023-03-16T08:01:33.919Z,75.73
2023-03-16T08:02:36.174Z,75.66
2023-03-16T08:03:40.087Z,75.63
2023-03-16T08:04:44.308Z,75.23
2023-03-16T08:05:47.934Z,75.01
2023-03-16T08:06:55.001Z,75.17
2023-03-16T08:08:00.467Z,73.73
2023-03-16T08:09:03.727Z,73.09
2023-03-16T08:10:10.901Z,73.88
2023-03-16T08:11:23.124Z,72.99
2023-03-16T08:12:31.246Z,72.79
2023-03-16T08:13:34.760Z,72.76
2023-03-16T08:14:38.191Z,72.50
2023-03-16T08:15:49.800Z,72.43
2023-03-16T08:17:01.084Z,72.42
2023-03-16T08:18:03.789Z,72.25
2023-03-16T08:19:06.750Z,72.00
2023-03-16T08:20:11.700Z,72.47
2023-03-16T08:21:17.755Z,72.67
2023-03-16T08:22:20.807Z,72.53
2023-03-16T08:23:25.224Z,72.54
2023-03-16T08:24:28.844Z,71.54
2023-03-16T08:25:32.352Z,71.33
2023-03-16T08:26:39.939Z,70.34
2023-03-16T08:27:48.016Z,70.05
2023-03-16T08:28:51.405Z,70.53
2023-03-16T08:29:54.980Z,71.04
2023-03-16T08:30:59.290Z,70.70
2023-03-16T08:32:24.634Z,70.94
2023-03-16T08:33:27.283Z,70.91
2023-03-16T08:34:29.599Z,70.67
2023-03-16T08:35:32.380Z,71.08
2023-03-16T08:36:34.330Z,71.12
2023-03-16T08:37:38.206Z,70.72
2023-03-16T08:38:43.226Z,70.78
2023-03-16T08:39:46.086Z,70.85
2023-03-16T08:40:51.462Z,70.78
2023-03-16T08:41:56.053Z,70.72
2023-03-16T08:43:10.304Z,70.75
2023-03-16T08:44:12.637Z,70.67
2023-03-16T08:45:16.765Z,70.49
2023-03-16T08:46:21.593Z,70.70
2023-03-16T08:47:30.344Z,69.99
2023-03-16T08:48:32.874Z,70.30
2023-03-16T08:49:36.309Z,69.43
2023-03-16T08:50:44.291Z,69.32
2023-03-16T08:51:47.329Z,68.91
2023-03-16T08:52:51.748Z,68.81
2023-03-16T08:53:55.079Z,68.55
2023-03-16T08:55:03.464Z,68.58
2023-03-16T08:56:13.516Z,69.04
2023-03-16T08:57:16.971Z,69.47
2023-03-16T08:58:20.017Z,69.22
2023-03-16T08:59:30.101Z,69.39
2023-03-16T09:00:33.602Z,69.55
2023-03-16T09:01:40.806Z,69.57
2023-03-16T09:02:46.286Z,69.35
2023-03-16T09:03:48.527Z,69.17
2023-03-16T09:04:52.158Z,69.43
2023-03-16T09:06:09.281Z,69.29
2023-03-16T09:07:13.534Z,69.08
2023-03-16T09:08:17.499Z,69.38
2023-03-16T09:09:20.642Z,68.94
2023-03-16T09:10:23.232Z,68.84
2023-03-16T09:11:30.084Z,68.77
2023-03-16T09:12:35.504Z,68.81
2023-03-16T09:13:39.650Z,68.93
2023-03-16T09:14:43.307Z,68.65
2023-03-16T09:15:45.579Z,68.51
2023-03-16T09:16:49.247Z,68.66
2023-03-16T09:17:52.517Z,67.72
2023-03-16T09:18:55.224Z,67.86
2023-03-16T09:20:11.485Z,68.07
2023-03-16T09:21:26.145Z,67.49
2023-03-16T09:22:31.407Z,66.80
2023-03-16T09:23:34.370Z,66.85
2023-03-16T09:24:36.913Z,66.90
2023-03-16T09:25:39.756Z,65.50
2023-03-16T09:26:43.219Z,65.75
2023-03-16T09:27:46.080Z,65.80
2023-03-16T09:28:49.013Z,66.08
2023-03-16T09:29:52.420Z,65.32
2023-03-16T09:30:56.528Z,65.10
2023-03-16T09:32:00.234Z,65.16
2023-03-16T09:33:03.890Z,65.96
2023-03-16T09:34:06.082Z,65.77
2023-03-16T09:35:08.494Z,65.68
2023-03-16T09:36:11.266Z,65.29
2023-03-16T09:37:13.840Z,65.74
2023-03-16T09:38:17.491Z,66.14
2023-03-16T09:39:19.827Z,65.84
2023-03-16T09:40:27.876Z,65.79
2023-03-16T09:41:43.297Z,66.33
2023-03-16T09:42:54.458Z,66.40
2023-03-16T09:44:31.800Z,65.78
2023-03-16T09:45:44.890Z,65.93
2023-03-16T09:46:50.107Z,65.37
2023-03-16T09:47:57.189Z,65.52
2023-03-16T09:48:59.994Z,65.44
2023-03-16T09:50:06.124Z,65.46
2023-03-16T09:51:37.436Z,65.67
2023-03-16T09:53:03.514Z,64.80
2023-03-16T09:54:49.456Z,65.09
2023-03-16T09:56:02.642Z,64.64
2023-03-16T09:57:10.713Z,64.91
2023-03-16T09:58:18.863Z,64.36
2023-03-16T09:59:24.170Z,64.47
2023-03-16T10:00:54.704Z,64.77
2023-03-16T10:02:00.168Z,64.86
2023-03-16T10:03:15.363Z,64.95
2023-03-16T10:04:25.815Z,64.93
2023-03-16T10:05:27.842Z,64.99
2023-03-16T10:06:42.221Z,64.95
2023-03-16T10:08:06.310Z,65.23
2023-03-16T10:09:25.540Z,64.64
2023-03-16T10:10:41.829Z,64.80
2023-03-16T10:11:48.992Z,65.08
2023-03-16T10:12:53.820Z,64.84
2023-03-16T10:14:10.966Z,64.86
2023-03-16T10:15:23.794Z,65.04
2023-03-16T10:16:33.719Z,64.97
2023-03-16T10:17:45.456Z,64.78
2023-03-16T10:18:59.330Z,64.22
2023-03-16T10:20:08.399Z,64.73
2023-03-16T10:21:13.543Z,64.35
2023-03-16T10:22:25.674Z,64.12
2023-03-16T10:23:34.557Z,64.10
2023-03-16T10:25:03.404Z,63.76
2023-03-16T10:26:13.383Z,63.81
2023-03-16T10:27:23.665Z,64.21
2023-03-16T10:28:27.808Z,64.00
2023-03-16T10:29:36.127Z,63.83
2023-03-16T10:30:39.945Z,63.87
2023-03-16T10:31:42.216Z,64.14
2023-03-16T10:32:48.759Z,63.95
2023-03-16T10:34:04.935Z,63.84
2023-03-16T10:35:24.559Z,63.93
2023-03-16T10:36:34.757Z,64.41
2023-03-16T10:37:38.034Z,64.35
2023-03-16T10:38:40.399Z,64.58
2023-03-16T10:39:44.134Z,64.48
2023-03-16T10:40:53.372Z,64.53
2023-03-16T10:41:57.150Z,64.88
2023-03-16T10:43:12.158Z,64.74
2023-03-16T10:44:23.912Z,63.74
2023-03-16T10:45:32.033Z,63.89
2023-03-16T10:46:47.830Z,64.45
2023-03-16T10:47:50.558Z,64.37
2023-03-16T10:49:01.260Z,63.99
2023-03-16T10:50:13.649Z,63.80
2023-03-16T10:51:19.643Z,63.98
2023-03-16T10:52:31.089Z,63.77
2023-03-16T10:53:37.752Z,64.56
2023-03-16T10:54:49.097Z,64.57
2023-03-16T10:55:58.499Z,65.08
2023-03-16T10:57:22.693Z,64.92
2023-03-16T10:58:30.878Z,65.06
2023-03-16T10:59:36.411Z,65.16
2023-03-16T11:00:42.740Z,65.19
2023-03-16T11:01:49.314Z,65.09
2023-03-16T11:02:54.808Z,64.96
2023-03-16T11:03:58.599Z,65.14
2023-03-16T11:05:30.380Z,64.79
2023-03-16T11:06:34.064Z,64.70
2023-03-16T11:07:38.606Z,64.63
2023-03-16T11:08:47.114Z,64.77
2023-03-16T11:09:51.789Z,64.86
2023-03-16T11:10:58.716Z,64.74
2023-03-16T11:12:23.561Z,64.50
2023-03-16T11:13:35.489Z,64.34
2023-03-16T11:14:37.959Z,63.78
2023-03-16T11:16:17.381Z,63.49
2023-03-16T11:17:35.753Z,63.64
2023-03-16T11:18:50.230Z,63.49
2023-03-16T11:20:13.827Z,63.08
2023-03-16T11:21:26.825Z,62.91
2023-03-16T11:22:30.107Z,62.58
2023-03-16T11:23:44.002Z,61.91
2023-03-16T11:25:17.718Z,62.05
2023-03-16T11:26:30.669Z,62.11
2023-03-16T11:27:41.543Z,62.43
2023-03-16T11:28:55.703Z,62.50
2023-03-16T11:30:25.238Z,62.13
2023-03-16T11:31:48.789Z,62.55
2023-03-16T11:32:53.436Z,62.38
2023-03-16T11:33:56.869Z,61.90
2023-03-16T11:34:59.866Z,61.92
2023-03-16T11:36:21.524Z,61.67
2023-03-16T11:37:38.578Z,61.23
2023-03-16T11:39:05.849Z,60.92
2023-03-16T11:40:35.806Z,60.11
2023-03-16T11:41:58.996Z,60.23
2023-03-16T11:43:17.118Z,59.87
2023-03-16T11:44:50.542Z,60.00
2023-03-16T11:46:26.744Z,60.27
2023-03-16T11:47:59.753Z,60.14
2023-03-16T11:49:13.764Z,60.37
2023-03-16T11:50:37.163Z,61.22
2023-03-16T11:52:07.647Z,60.22
2023-03-16T11:54:09.087Z,59.88
2023-03-16T11:55:41.476Z,61.13
2023-03-16T11:56:52.134Z,60.86
2023-03-16T11:58:07.450Z,61.40
2023-03-16T11:59:25.561Z,61.55
2023-03-16T12:00:42.115Z,61.78
2023-03-16T12:02:07.567Z,62.13
2023-03-16T12:03:31.796Z,62.06
2023-03-16T12:04:48.448Z,62.35
2023-03-16T12:06:26.806Z,62.66
2023-03-16T12:07:54.826Z,63.13
2023-03-16T12:09:00.870Z,63.85
2023-03-16T12:10:07.437Z,64.35
2023-03-16T12:11:21.782Z,65.27
2023-03-16T12:12:49.097Z,65.30
2023-03-16T12:14:07.846Z,66.29
2023-03-16T12:15:30.189Z,66.46
2023-03-16T12:16:56.727Z,67.64
2023-03-16T12:18:09.008Z,67.10
2023-03-16T12:19:41.126Z,68.00
2023-03-16T12:20:58.981Z,69.28
2023-03-16T12:22:10.662Z,69.43
2023-03-16T12:23:22.838Z,70.27
2023-03-16T12:24:31.506Z,71.39
2023-03-16T12:25:38.913Z,70.16
2023-03-16T12:26:45.404Z,70.67
2023-03-16T12:27:59.989Z,70.53
2023-03-16T12:29:37.712Z,71.46
2023-03-16T12:30:52.787Z,71.34
2023-03-16T12:32:11.776Z,72.09
2023-03-16T12:33:20.065Z,72.98
2023-03-16T12:34:36.118Z,73.03
2023-03-16T12:36:04.118Z,73.52
2023-03-16T12:37:12.421Z,73.51
2023-03-16T12:38:39.016Z,74.42
2023-03-16T12:40:07.044Z,73.95
2023-03-16T12:41:22.463Z,73.99
2023-03-16T12:42:55.582Z,73.93
2023-03-16T12:44:17.405Z,74.12
2023-03-16T12:45:37.863Z,74.27
2023-03-16T12:47:03.941Z,74.58
2023-03-16T12:48:48.438Z,74.43
2023-03-16T12:49:53.861Z,73.53
2023-03-16T12:50:59.754Z,74.35
2023-03-16T12:52:15.907Z,73.69
2023-03-16T12:53:45.247Z,73.89
2023-03-16T12:55:06.186Z,74.15
2023-03-16T12:56:11.252Z,74.27
2023-03-16T12:57:16.558Z,75.37
2023-03-16T12:58:23.167Z,74.96
2023-03-16T12:59:38.282Z,76.02
2023-03-16T13:00:41.923Z,75.28
2023-03-16T13:01:48.273Z,75.18
2023-03-16T13:02:55.636Z,75.50
2023-03-16T13:04:05.952Z,76.21
2023-03-16T13:05:15.708Z,75.55
2023-03-16T13:06:23.488Z,75.71
2023-03-16T13:07:49.273Z,76.04
2023-03-16T13:09:00.391Z,75.80
2023-03-16T13:10:10.076Z,75.99
2023-03-16T13:11:14.048Z,76.53
2023-03-16T13:12:24.289Z,76.15
2023-03-16T13:13:27.689Z,76.22
2023-03-16T13:14:39.779Z,75.39
2023-03-16T13:15:46.695Z,74.70
2023-03-16T13:16:49.142Z,74.56
2023-03-16T13:18:09.438Z,73.17
2023-03-16T13:19:19.192Z,72.96
2023-03-16T13:20:31.309Z,71.75
2023-03-16T13:21:40.903Z,70.62
2023-03-16T13:22:52.434Z,68.47
2023-03-16T13:24:13.067Z,68.84
2023-03-16T13:25:37.718Z,69.40
2023-03-16T13:26:43.153Z,67.60
2023-03-16T13:27:49.424Z,68.03
2023-03-16T13:28:54.442Z,67.30
2023-03-16T13:30:02.846Z,67.80
2023-03-16T13:31:37.126Z,67.85
2023-03-16T13:32:40.379Z,67.76
2023-03-16T13:33:45.422Z,66.41
2023-03-16T13:34:52.793Z,66.61
2023-03-16T13:35:58.549Z,67.18
2023-03-16T13:37:01.900Z,67.30
2023-03-16T13:38:15.029Z,65.93
2023-03-16T13:39:20.095Z,66.25
2023-03-16T13:40:26.580Z,66.08
2023-03-16T13:41:31.197Z,65.80
2023-03-16T13:42:36.317Z,65.20
2023-03-16T13:43:41.844Z,63.16
2023-03-16T13:44:44.772Z,63.04
2023-03-16T13:45:47.738Z,62.72
2023-03-16T13:46:51.403Z,62.77
2023-03-16T13:47:53.463Z,61.15
2023-03-16T13:49:00.026Z,60.82
2023-03-16T13:50:02.113Z,61.26
2023-03-16T13:51:04.337Z,61.81
2023-03-16T13:52:17.138Z,61.12
2023-03-16T13:53:30.930Z,61.80
2023-03-16T13:54:36.589Z,60.67
2023-03-16T13:55:39.760Z,60.82
2023-03-16T13:56:44.670Z,60.93
2023-03-16T13:57:48.812Z,61.36
2023-03-16T13:58:52.283Z,61.52
2023-03-16T14:00:05.005Z,59.49
2023-03-16T14:01:35.177Z,58.80
2023-03-16T14:02:42.860Z,59.30
2023-03-16T14:03:44.659Z,59.15
2023-03-16T14:04:46.541Z,57.85
2023-03-16T14:05:48.883Z,56.79
2023-03-16T14:07:01.602Z,56.41
2023-03-16T14:08:04.346Z,55.75
2023-03-16T14:09:13.405Z,56.53
2023-03-16T14:10:16.557Z,55.77
2023-03-16T14:11:18.285Z,56.47
2023-03-16T14:12:19.709Z,56.51
2023-03-16T14:13:27.352Z,56.27
2023-03-16T14:14:31.519Z,56.68
2023-03-16T14:15:33.745Z,55.31
2023-03-16T14:16:35.323Z,54.40
2023-03-16T14:17:37.374Z,54.02
2023-03-16T14:18:45.375Z,54.45
2023-03-16T14:19:58.075Z,54.33
2023-03-16T14:21:04.795Z,54.67
2023-03-16T14:22:12.528Z,55.34
2023-03-16T14:23:28.090Z,55.59
2023-03-16T14:24:34.143Z,55.33
2023-03-16T14:25:35.640Z,54.72